Αναφορές METAR Αεροδρομίων

 

LGTS - THESSALONIKI - GREECE
Ενημερώθηκε: 16/06/2019 12:20
Αραιές Νεφώσεις
Αραιές Νεφώσεις
 Ανεμος από ΔΒΔ
Ανεμος: ΔΒΔ 11 km/h
Θερμοκρασία: 30°C
Heat Index: 31°C
Σημείο Δρόσου: 19°C
Υγρασία: 52%
Βαρόμετρο: 1012 hPa
Clouds: Αραιές Νεφώσεις
Visibility: 10 km
Cloud details: Αραιές Νεφώσεις 762 m
2019/06/16 09:20 LGTS 160920Z 30006KT 9999 FEW025 30/19 Q1012 NOSIG
LGLR - LARTISA - GREECE
Ενημερώθηκε: 16/06/2019 11:50
Αραιές Νεφώσεις
Αραιές Νεφώσεις
 Ανεμος από calm
Ανεμος: Απνοια
Θερμοκρασία: 32°C
Σημείο Δρόσου: 15°C
Υγρασία: 36%
Βαρόμετρο: 1012 hPa
Clouds: Αραιές Νεφώσεις
Visibility: 10 km
Cloud details: Αραιές Νεφώσεις 914 m
2019/06/16 08:50 LGLR 160850Z 00000KT 9999 FEW030 32/15 Q1012 BLU
 
LGKZ - KOZANI - GREECE
Ενημερώθηκε: 16/06/2019 11:50
Μερικώς νεφελώδης
Μερικώς νεφελώδης
 Ανεμος από Α
Ανεμος: Α 13 km/h
Θερμοκρασία: 27°C
Heat Index: 27°C
Σημείο Δρόσου: 15°C
Υγρασία: 48%
Βαρόμετρο: 1016 hPa
Clouds: Μερικώς νεφελώδης
Visibility: 10 km
Cloud details: Αραιές Νεφώσεις 762 m
Μερικώς νεφελώδης 2134 m
2019/06/16 08:50 LGKZ 160850Z 09007KT 9999 FEW025 SCT070 27/15 Q1016
LGKV - KAVALA - GREECE
Ενημερώθηκε: 16/06/2019 12:20
Αραιές Νεφώσεις
Αραιές Νεφώσεις
 Ανεμος από ΝΝΔ
Ανεμος: ΝΝΔ 11 km/h
Θερμοκρασία: 29°C
Heat Index: 30°C
Σημείο Δρόσου: 19°C
Υγρασία: 55%
Βαρόμετρο: 1011 hPa
Clouds: Αραιές Νεφώσεις
Visibility: 10 km
Cloud details: Αραιές Νεφώσεις 762 m
2019/06/16 09:20 LGKV 160920Z 21006KT 9999 FEW025 29/19 Q1011
 
LGIO - IOANNINA - GREECE
Ενημερώθηκε: 16/06/2019 12:20
Αίθριος
Αίθριος
 Ανεμος από varies
Ανεμος: varies 0 km/h
Θερμοκρασία: 31°C
Heat Index: 32°C
Σημείο Δρόσου: 18°C
Υγρασία: 46%
Βαρόμετρο: 1013 hPa
Περίληψη: Αίθριος
Visibility: greater than 10 km
2019/06/16 09:20 LGIO 160920Z /////KT CAVOK 31/18 Q1013
LGBL - BOLOS - GREECE
Ενημερώθηκε: 16/06/2019 12:20
Αραιές Νεφώσεις
Αραιές Νεφώσεις
 Ανεμος από Α
Ανεμος: Α 19 km/h
Θερμοκρασία: 31°C
Σημείο Δρόσου: 13°C
Υγρασία: 33%
Βαρόμετρο: 1012 hPa
Clouds: Αραιές Νεφώσεις
Visibility: 10 km
Cloud details: Αραιές Νεφώσεις 1524 m
2019/06/16 09:20 LGBL 160920Z 10010KT 9999 FEW050 31/13 Q1012
 
LGMT - MITILINI - GREECE
Ενημερώθηκε: 16/06/2019 12:20
Αραιές Νεφώσεις
Αραιές Νεφώσεις
 Ανεμος από ΒΔ
Ανεμος: ΒΔ 20 km/h
Θερμοκρασία: 28°C
Heat Index: 28°C
Σημείο Δρόσου: 17°C
Υγρασία: 51%
Βαρόμετρο: 1010 hPa
Clouds: Αραιές Νεφώσεις
Visibility: 10 km
Cloud details: Αραιές Νεφώσεις 762 m
2019/06/16 09:20 LGMT 160920Z 31011KT 270V360 9999 FEW025 28/17 Q1010
LGAV - ATHENS - GREECE
Ενημερώθηκε: 16/06/2019 12:20
Αραιές Νεφώσεις
Αραιές Νεφώσεις
 Ανεμος από ΒΑ
Ανεμος: ΒΑ 30 km/h
Θερμοκρασία: 31°C
Σημείο Δρόσου: 13°C
Υγρασία: 33%
Βαρόμετρο: 1012 hPa
Clouds: Αραιές Νεφώσεις
Visibility: 10 km
Cloud details: Αραιές Νεφώσεις 914 m
2019/06/16 09:20 LGAV 160920Z 05016KT 9999 FEW030 31/13 Q1012 NOSIG
 
LGRP - RODOS - GREECE
Ενημερώθηκε: 16/06/2019 12:20
Αραιές Νεφώσεις
Αραιές Νεφώσεις
 Ανεμος από Δ
Ανεμος: Δ 13 km/h
Θερμοκρασία: 28°C
Heat Index: 29°C
Σημείο Δρόσου: 20°C
Υγρασία: 62%
Βαρόμετρο: 1007 hPa
Clouds: Αραιές Νεφώσεις
Visibility: 10 km
Cloud details: Αραιές Νεφώσεις 610 m
2019/06/16 09:20 LGRP 160920Z 27007KT 9999 FEW020 28/20 Q1007 NOSIG
LGIR - HRAKLIO/KRITI - GREECE
Ενημερώθηκε: 16/06/2019 12:20
Μερικώς νεφελώδης
Μερικώς νεφελώδης
 Ανεμος από ΔΒΔ
Ανεμος: ΔΒΔ 20 km/h
Θερμοκρασία: 26°C
Σημείο Δρόσου: 21°C
Υγρασία: 74%
Βαρόμετρο: 1011 hPa
Clouds: Μερικώς νεφελώδης
Visibility: 10 km
Cloud details: Αραιές Νεφώσεις 610 m
Μερικώς νεφελώδης 762 m
2019/06/16 09:20 LGIR 160920Z 30011KT 9999 FEW020 SCT025 26/21 Q1011 NOSIG
 
LGMK - MIKONOS - GREECE
Ενημερώθηκε: 16/06/2019 12:20
Αραιές Νεφώσεις
Αραιές Νεφώσεις
 Ανεμος από Β
Ανεμος: Β 28 km/h
Θερμοκρασία: 26°C
Σημείο Δρόσου: 15°C
Υγρασία: 51%
Βαρόμετρο: 1010 hPa
Clouds: Αραιές Νεφώσεις
Visibility: 10 km
Cloud details: Αραιές Νεφώσεις 305 m
2019/06/16 09:20 LGMK 160920Z 35015KT 9999 FEW010 26/15 Q1010
LGKR - KERKIRA - GREECE
Ενημερώθηκε: 16/06/2019 12:20
Αίθριος
Αίθριος
 Ανεμος από Ν
Ανεμος: Ν 7 km/h
Θερμοκρασία: 30°C
Heat Index: 34°C
Σημείο Δρόσου: 23°C
Υγρασία: 66%
Βαρόμετρο: 1011 hPa
Περίληψη: Αίθριος
Visibility: greater than 10 km
2019/06/16 09:20 LGKR 160920Z 18004KT CAVOK 30/23 Q1011 NOSIG